Time;durP1;ratioP1;P1;durP2;ratioP2;P2;SDS_P1;SDS_P2;PMS_P1;PMS_P2;Temp;Humidity;BMP_temperature;BMP_pressure;BME280_temperature;BME280_humidity;BME280_pressure;Samples;Min_cycle;Max_cycle;Signal;HPM_P1;HPM_P2
2021/09/16 00:06:47;;;;;;;35.30;22.30;;;;;;;17.30;69.44;98288.85;457220;1195;108345;-41
2021/09/16 00:16:51;;;;;;;36.90;24.40;;;;;;;17.28;69.53;98280.23;456908;1200;97275;-42
2021/09/16 00:26:55;;;;;;;32.10;23.80;;;;;;;17.28;69.77;98283.48;457022;1201;110820;-41
2021/09/16 00:36:58;;;;;;;31.30;23.60;;;;;;;17.30;69.94;98279.40;456994;1201;108684;-42
2021/09/16 00:47:02;;;;;;;31.20;23.10;;;;;;;17.34;69.99;98272.41;456988;1200;96413;-41
2021/09/16 00:57:08;;;;;;;33.80;24.80;;;;;;;17.32;70.26;98273.66;457021;1201;108568;-41
2021/09/16 01:07:14;;;;;;;38.80;26.40;;;;;;;17.17;70.36;98270.10;457268;1201;108811;-41
2021/09/16 01:17:17;;;;;;;34.00;24.20;;;;;;;17.07;70.79;98260.37;457772;1195;97678;-42
2021/09/16 01:27:21;;;;;;;33.50;23.90;;;;;;;17.09;71.05;98251.48;456925;1199;109759;-42
2021/09/16 01:37:25;;;;;;;37.50;25.40;;;;;;;17.18;71.48;98246.42;457054;1201;97234;-42
2021/09/16 01:47:29;;;;;;;34.00;24.00;;;;;;;17.25;71.88;98241.48;456800;1201;110814;-41
2021/09/16 01:57:34;;;;;;;34.60;24.00;;;;;;;17.32;72.01;98238.17;457046;1201;108496;-42
2021/09/16 02:07:38;;;;;;;36.40;25.00;;;;;;;17.29;72.09;98237.14;456982;1201;97660;-41
2021/09/16 02:17:42;;;;;;;35.90;24.60;;;;;;;17.26;72.14;98234.95;456838;1201;108638;-41
2021/09/16 02:27:46;;;;;;;34.70;25.10;;;;;;;17.21;72.53;98227.41;456889;1202;97278;-42
2021/09/16 02:37:49;;;;;;;35.30;26.50;;;;;;;17.17;72.67;98221.42;456839;1202;110953;-41
2021/09/16 02:47:53;;;;;;;39.10;26.50;;;;;;;17.14;73.05;98220.06;456935;1202;108570;-41
2021/09/16 02:57:57;;;;;;;35.10;25.50;;;;;;;17.13;72.98;98224.89;456774;1201;97230;-41
2021/09/16 03:08:00;;;;;;;38.20;26.30;;;;;;;17.08;73.12;98218.05;456888;1200;105737;-42
2021/09/16 03:18:04;;;;;;;35.70;26.00;;;;;;;17.01;73.22;98210.45;457100;1194;97648;-43
2021/09/16 03:28:08;;;;;;;36.10;25.80;;;;;;;16.93;73.35;98204.60;456935;1201;111040;-42
2021/09/16 03:38:11;;;;;;;36.80;26.50;;;;;;;16.88;73.69;98209.14;457086;1202;108571;-41
2021/09/16 03:48:15;;;;;;;34.90;26.50;;;;;;;16.83;74.05;98202.09;456960;1202;96417;-43
2021/09/16 03:58:19;;;;;;;42.00;27.80;;;;;;;16.78;74.62;98190.30;456966;1202;108730;-41
2021/09/16 04:08:23;;;;;;;37.10;27.30;;;;;;;16.88;74.55;98187.55;456820;1201;96445;-42
2021/09/16 04:18:26;;;;;;;39.00;27.20;;;;;;;16.93;74.70;98191.25;457116;1196;110989;-41
2021/09/16 04:28:30;;;;;;;40.90;28.30;;;;;;;16.95;74.66;98193.64;456931;1198;107008;-42
2021/09/16 04:38:34;;;;;;;37.80;27.00;;;;;;;16.99;74.89;98189.38;457072;1201;97233;-41
2021/09/16 04:48:37;;;;;;;38.60;26.90;;;;;;;17.06;74.79;98196.59;456972;1201;108510;-41
2021/09/16 04:58:41;;;;;;;40.20;28.00;;;;;;;17.15;74.89;98206.70;456895;1202;97221;-43
2021/09/16 05:08:45;;;;;;;48.20;28.80;;;;;;;17.21;75.13;98215.77;457023;1202;110920;-41
2021/09/16 05:18:49;;;;;;;52.90;37.30;;;;;;;17.27;75.33;98222.19;457056;1203;109141;-42
2021/09/16 05:28:53;;;;;;;46.90;30.60;;;;;;;17.33;75.31;98226.30;457181;1195;96763;-42
2021/09/16 05:38:57;;;;;;;41.90;30.10;;;;;;;17.49;75.51;98228.36;457050;1200;108664;-41
2021/09/16 05:49:01;;;;;;;42.70;30.10;;;;;;;17.61;75.72;98228.35;456908;1202;98316;-41
2021/09/16 05:59:04;;;;;;;43.80;30.70;;;;;;;17.85;75.60;98233.38;456923;1201;110711;-42
2021/09/16 06:09:08;;;;;;;50.70;32.20;;;;;;;18.27;75.73;98233.63;456853;1194;109654;-42
2021/09/16 06:19:12;;;;;;;46.70;30.10;;;;;;;18.76;75.36;98237.11;456881;1201;98344;-43
2021/09/16 06:29:15;;;;;;;42.40;28.00;;;;;;;18.95;74.68;98239.17;456933;1195;97931;-43
2021/09/16 06:39:19;;;;;;;49.50;28.20;;;;;;;19.19;74.41;98237.27;457015;1201;108414;-41
2021/09/16 06:49:23;;;;;;;40.10;29.20;;;;;;;19.66;74.41;98240.05;457066;1194;97269;-42
2021/09/16 06:59:27;;;;;;;38.10;29.20;;;;;;;20.06;73.95;98240.81;456896;1195;97754;-41
2021/09/16 07:09:31;;;;;;;29.40;23.00;;;;;;;20.26;73.53;98249.77;456762;1201;108610;-41
2021/09/16 07:19:35;;;;;;;35.50;22.80;;;;;;;20.30;73.29;98262.50;457093;1194;97514;-41
2021/09/16 07:29:39;;;;;;;30.20;22.60;;;;;;;20.38;73.14;98264.49;456946;1200;107476;-40
2021/09/16 07:39:43;;;;;;;44.80;22.50;;;;;;;20.39;73.17;98266.36;457181;1201;96445;-42
2021/09/16 07:49:47;;;;;;;24.30;20.40;;;;;;;20.44;72.96;98276.53;457417;1194;110611;-40
2021/09/16 07:59:51;;;;;;;27.50;20.00;;;;;;;20.55;73.07;98280.96;456886;1201;108511;-41
2021/09/16 08:09:55;;;;;;;26.00;21.90;;;;;;;20.84;72.98;98289.80;456877;1201;97672;-41
2021/09/16 08:19:58;;;;;;;27.50;22.20;;;;;;;21.10;72.80;98298.15;456976;1202;97700;-41
2021/09/16 08:30:02;;;;;;;29.10;22.80;;;;;;;21.31;72.44;98305.62;456806;1201;107137;-44
2021/09/16 08:40:08;;;;;;;32.60;19.30;;;;;;;21.38;72.36;98316.48;457235;1201;97646;-41
2021/09/16 08:50:13;;;;;;;29.20;22.10;;;;;;;21.49;72.34;98318.49;457022;1202;108473;-42
2021/09/16 09:00:18;;;;;;;25.20;18.40;;;;;;;21.70;72.35;98317.85;457012;1201;97649;-41
2021/09/16 09:10:40;;;;;;;16.70;14.90;;;;;;;22.01;71.82;98318.59;457099;1201;96386;-42
2021/09/16 09:21:04;;;;;;;15.60;14.00;;;;;;;22.28;71.45;98317.64;457039;1200;108368;-41
2021/09/16 09:31:16;;;;;;;21.30;15.60;;;;;;;22.41;71.22;98312.71;456901;1201;97896;-42
2021/09/16 09:41:30;;;;;;;20.80;15.00;;;;;;;22.44;71.05;98314.90;457065;1194;97959;-41
2021/09/16 10:01:39;;;;;;;16.60;12.30;;;;;;;22.48;70.61;98319.95;456940;1201;108488;-41
2021/09/16 10:11:46;;;;;;;15.20;13.60;;;;;;;22.62;70.54;98324.25;456927;1201;97417;-40
2021/09/16 10:21:51;;;;;;;21.70;14.30;;;;;;;22.52;70.51;98324.24;457000;1201;110726;-41
2021/09/16 10:32:33;;;;;;;13.10;11.20;;;;;;;22.41;70.63;98320.16;457069;1201;97660;-41
2021/09/16 10:42:47;;;;;;;13.30;11.90;;;;;;;22.54;71.23;98320.25;456901;1201;97946;-41
2021/09/16 10:53:28;;;;;;;15.60;13.70;;;;;;;22.61;70.84;98319.78;456999;1201;110709;-42
2021/09/16 11:03:48;;;;;;;15.40;13.90;;;;;;;22.49;71.03;98304.38;456956;1195;108676;-42
2021/09/16 11:23:58;;;;;;;18.00;14.90;;;;;;;22.71;70.75;98300.23;456968;1201;97783;-41
2021/09/16 11:34:12;;;;;;;17.10;14.40;;;;;;;22.60;70.70;98294.86;457070;1194;107236;-43
2021/09/16 11:44:16;;;;;;;16.10;13.20;;;;;;;22.50;71.06;98289.83;457124;1201;97982;-43
2021/09/16 11:54:20;;;;;;;14.40;10.90;;;;;;;22.50;70.77;98275.05;457153;1201;97598;-41
2021/09/16 12:04:41;;;;;;;17.60;13.40;;;;;;;22.45;71.00;98262.55;457105;1200;108327;-42
2021/09/16 12:24:52;;;;;;;9.60;8.70;;;;;;;22.79;71.38;98240.14;457188;1200;110667;-42
2021/09/16 12:34:57;;;;;;;8.60;7.80;;;;;;;22.78;71.11;98235.08;457042;1201;108440;-43
2021/09/16 12:45:06;;;;;;;10.10;8.90;;;;;;;22.58;70.82;98230.51;457106;1194;98321;-41
2021/09/16 12:55:10;;;;;;;10.20;7.70;;;;;;;22.26;70.82;98229.89;457051;1193;110228;-42
2021/09/16 13:05:18;;;;;;;9.90;8.40;;;;;;;22.02;71.09;98222.56;457321;1200;108506;-41
2021/09/16 13:15:22;;;;;;;13.10;8.60;;;;;;;21.83;71.35;98221.33;457069;1201;97678;-43
2021/09/16 13:26:02;;;;;;;8.80;7.30;;;;;;;21.67;71.22;98226.61;454741;1209;635923;-41
2021/09/16 13:36:10;;;;;;;8.70;7.80;;;;;;;21.61;71.51;98224.75;460423;1197;95196;-41
2021/09/16 13:46:16;;;;;;;7.90;6.90;;;;;;;21.58;71.62;98222.30;460364;1199;107927;-41
2021/09/16 13:56:23;;;;;;;11.10;10.00;;;;;;;21.58;71.60;98221.92;460506;1199;108538;-42
2021/09/16 14:06:31;;;;;;;8.80;7.90;;;;;;;21.53;71.63;98218.30;460589;1194;108148;-41
2021/09/16 14:16:39;;;;;;;12.60;9.00;;;;;;;21.34;71.46;98218.90;460598;1197;94457;-41
2021/09/16 14:26:45;;;;;;;16.20;10.20;;;;;;;21.26;71.66;98222.18;460268;1197;95149;-41
2021/09/16 14:36:53;;;;;;;11.40;9.10;;;;;;;21.14;71.79;98216.85;460180;1195;108246;-42
2021/09/16 14:47:00;;;;;;;19.20;11.70;;;;;;;21.05;72.22;98222.69;462403;1193;107600;-42
2021/09/16 14:57:06;;;;;;;17.50;11.00;;;;;;;20.98;72.54;98224.41;461733;1192;108573;-41
2021/09/16 15:07:14;;;;;;;18.70;12.20;;;;;;;20.52;72.86;98225.41;462061;1193;95929;-43
2021/09/16 15:17:21;;;;;;;8.80;6.10;;;;;;;19.87;73.56;98236.27;462308;1193;108133;-42
2021/09/16 15:27:27;;;;;;;8.70;6.20;;;;;;;19.55;74.22;98250.06;462397;1193;96676;-41
2021/09/16 15:37:34;;;;;;;7.50;5.00;;;;;;;19.31;74.65;98248.23;461993;1192;109399;-42
2021/09/16 15:47:42;;;;;;;12.90;8.00;;;;;;;19.15;75.19;98249.34;462333;1194;107303;-42
2021/09/16 15:57:49;;;;;;;12.10;5.60;;;;;;;19.16;75.76;98246.26;461965;1193;95889;-42
2021/09/16 16:07:59;;;;;;;9.20;7.20;;;;;;;19.10;75.98;98247.80;461952;1191;108621;-44
2021/09/16 16:18:07;;;;;;;9.90;6.40;;;;;;;19.05;76.28;98256.52;461909;1193;95962;-43
2021/09/16 16:28:13;;;;;;;11.00;7.10;;;;;;;19.07;76.44;98252.03;462305;1193;108706;-43
2021/09/16 16:48:26;;;;;;;16.70;13.70;;;;;;;19.00;76.94;98259.98;462412;1192;95365;-43
2021/09/16 16:58:33;;;;;;;19.80;16.20;;;;;;;18.97;77.10;98257.58;462042;1192;108003;-42
2021/09/16 17:08:41;;;;;;;18.90;14.40;;;;;;;18.92;77.08;98260.90;461857;1193;96353;-43
2021/09/16 17:18:50;;;;;;;12.30;8.70;;;;;;;18.94;77.45;98263.18;462290;1192;109948;-41
2021/09/16 17:28:58;;;;;;;9.40;6.40;;;;;;;18.94;77.66;98257.45;462258;1190;108523;-42
2021/09/16 17:39:05;;;;;;;12.90;7.60;;;;;;;18.91;77.59;98265.16;462218;1190;96378;-42
2021/09/16 17:49:14;;;;;;;13.70;8.20;;;;;;;18.85;77.82;98267.50;462234;1190;108577;-42
2021/09/16 17:59:21;;;;;;;11.50;8.90;;;;;;;18.82;77.92;98265.89;462350;1190;95385;-41
2021/09/16 18:19:35;;;;;;;13.80;10.20;;;;;;;18.71;78.30;98267.14;462435;1190;108513;-41
2021/09/16 18:29:43;;;;;;;11.80;10.10;;;;;;;18.71;78.32;98265.48;462201;1190;95951;-42
2021/09/16 18:39:52;;;;;;;13.00;9.50;;;;;;;18.62;78.31;98269.17;462095;1190;110164;-42
2021/09/16 18:49:59;;;;;;;16.40;11.00;;;;;;;18.51;78.49;98268.20;462181;1190;108421;-42
2021/09/16 19:00:10;;;;;;;17.70;14.30;;;;;;;18.41;78.54;98264.65;462287;1190;95898;-42
2021/09/16 19:10:34;;;;;;;17.40;14.80;;;;;;;18.31;78.59;98253.13;461905;1190;108884;-41
2021/09/16 19:20:41;;;;;;;18.50;14.20;;;;;;;18.24;78.68;98250.38;462152;1191;95898;-42
2021/09/16 19:30:48;;;;;;;16.70;14.30;;;;;;;18.13;78.71;98245.27;462359;1190;109745;-41
2021/09/16 19:40:56;;;;;;;18.80;14.30;;;;;;;18.01;78.85;98261.82;461852;1190;106805;-41
2021/09/16 19:51:05;;;;;;;17.60;13.80;;;;;;;17.97;79.01;98266.29;462355;1190;95914;-42
2021/09/16 20:01:15;;;;;;;23.50;16.50;;;;;;;17.90;79.16;98269.52;462305;1190;108503;-42
2021/09/16 20:11:24;;;;;;;23.50;17.30;;;;;;;17.85;79.12;98262.44;462056;1192;94943;-43
2021/09/16 20:21:30;;;;;;;;;;;;;;;17.80;79.45;98257.89;462076;1190;110133;-42
2021/09/16 20:31:39;;;;;;;25.20;19.90;;;;;;;17.70;79.54;98254.25;461970;1192;108517;-42
2021/09/16 20:41:47;;;;;;;26.40;19.90;;;;;;;17.68;79.71;98253.58;462188;1192;95932;-41
2021/09/16 20:51:55;;;;;;;29.60;23.10;;;;;;;17.68;79.92;98253.83;462252;1191;108521;-42
2021/09/16 21:02:02;;;;;;;30.50;21.40;;;;;;;17.78;80.10;98257.92;462312;1190;95913;-42
2021/09/16 21:12:11;;;;;;;31.50;23.00;;;;;;;17.84;80.25;98264.04;462427;1190;109497;-41
2021/09/16 21:22:20;;;;;;;29.90;21.90;;;;;;;17.93;80.13;98268.00;461927;1190;108555;-42
2021/09/16 21:32:28;;;;;;;28.00;22.10;;;;;;;17.93;80.19;98257.40;462244;1191;95876;-41
2021/09/16 21:42:35;;;;;;;27.90;21.30;;;;;;;17.90;80.31;98252.21;462135;1191;109465;-42
2021/09/16 21:52:42;;;;;;;38.50;23.70;;;;;;;17.91;80.35;98254.97;462190;1190;109355;-42
2021/09/16 22:02:49;;;;;;;30.10;22.40;;;;;;;18.01;80.51;98254.91;462220;1190;95913;-42
2021/09/16 22:12:57;;;;;;;30.90;23.50;;;;;;;18.01;80.41;98251.27;463081;1189;109473;-42
2021/09/16 22:23:05;;;;;;;31.30;23.80;;;;;;;17.92;80.53;98249.87;463076;1189;108517;-43
2021/09/16 22:33:13;;;;;;;35.00;24.50;;;;;;;17.81;80.37;98251.83;462579;1190;95897;-41
2021/09/16 22:43:20;;;;;;;26.40;19.70;;;;;;;17.69;80.72;98239.38;462529;1189;109078;-42
2021/09/16 22:53:28;;;;;;;30.50;21.80;;;;;;;17.54;80.58;98236.92;462590;1190;106893;-42
2021/09/16 23:03:35;;;;;;;25.60;18.80;;;;;;;17.42;80.80;98232.18;462847;1189;95871;-42
2021/09/16 23:13:43;;;;;;;27.50;20.20;;;;;;;17.34;80.76;98235.58;462802;1189;107430;-42
2021/09/16 23:23:51;;;;;;;25.10;18.90;;;;;;;17.32;81.06;98230.42;463029;1190;95004;-41
2021/09/16 23:33:58;;;;;;;25.30;19.30;;;;;;;17.28;81.06;98230.04;462627;1189;109423;-42
2021/09/16 23:44:06;;;;;;;23.70;18.90;;;;;;;17.15;81.07;98220.90;462824;1189;108452;-43
2021/09/16 23:54:12;;;;;;;30.20;17.70;;;;;;;16.99;81.10;98211.05;462960;1174;95843;-41
